Time;durP1;ratioP1;P1;durP2;ratioP2;P2;SDS_P1;SDS_P2;PMS_P1;PMS_P2;Temp;Humidity;BMP_temperature;BMP_pressure;BME280_temperature;BME280_humidity;BME280_pressure;Samples;Min_cycle;Max_cycle;Signal;HPM_P1;HPM_P2
2024/03/21 00:00:21;;;;;;;;;;;;;;;16.36;48.41;101270.75;5071091;28;1155;-60
2024/03/21 00:02:50;;;;;;;;;;;;;;;16.15;47.33;101257.94;5057684;28;1051;-60
2024/03/21 00:05:16;;;;;;;;;;;;;;;16.02;46.68;101256.41;5071188;28;872;-59
2024/03/21 00:07:45;;;;;;;;;;;;;;;17.28;47.03;101256.91;5076447;28;1073;-60
2024/03/21 00:10:11;;;;;;;;;;;;;;;16.63;48.35;101253.41;5057832;28;1059;-60
2024/03/21 00:12:37;;;;;;;;;;;;;;;16.31;47.62;101250.66;5073395;28;1150;-60
2024/03/21 00:15:03;;;;;;;;;;;;;;;16.01;47.47;101247.34;5076747;28;1035;-60
2024/03/21 00:17:28;;;;;;;;;;;;;;;17.09;47.54;101242.78;5063124;28;1906;-60
2024/03/21 00:19:54;;;;;;;;;;;;;;;16.74;48.04;101238.66;5066947;28;1147;-60
2024/03/21 00:22:19;;;;;;;;;;;;;;;16.24;47.88;101235.25;5077075;28;1031;-60
2024/03/21 00:24:45;;;;;;;;;;;;;;;16.86;48.22;101229.44;5077891;28;1062;-60
2024/03/21 00:27:10;;;;;;;;;;;;;;;16.58;48.34;101225.94;5075685;28;1091;-60
2024/03/21 00:29:36;;;;;;;;;;;;;;;16.16;48.00;101218.41;5063563;28;892;-60
2024/03/21 00:32:01;;;;;;;;;;;;;;;15.97;47.22;101212.50;5072152;28;1075;-60
2024/03/21 00:34:27;;;;;;;;;;;;;;;16.44;47.74;101217.31;5077283;28;1031;-60
2024/03/21 00:36:52;;;;;;;;;;;;;;;17.72;46.56;101219.97;5075658;28;1975;-60
2024/03/21 00:39:23;;;;;;;;;;;;;;;16.47;48.44;101211.28;5057181;28;1391;-60
2024/03/21 00:41:48;;;;;;;;;;;;;;;16.13;47.82;101210.72;5059124;28;1067;-60
2024/03/21 00:44:14;;;;;;;;;;;;;;;17.40;47.54;101212.72;5077065;28;1082;-60
2024/03/21 00:46:39;;;;;;;;;;;;;;;16.73;48.41;101215.06;5077051;28;1134;-61
2024/03/21 00:49:05;;;;;;;;;;;;;;;16.39;47.85;101209.03;5076848;28;1074;-60
2024/03/21 00:51:31;;;;;;;;;;;;;;;16.06;47.23;101211.75;5060973;28;1155;-60
2024/03/21 00:53:57;;;;;;;;;;;;;;;16.20;47.42;101205.84;5072741;28;901;-60
2024/03/21 00:56:23;;;;;;;;;;;;;;;17.76;46.67;101204.59;5061782;28;1131;-60
2024/03/21 00:58:48;;;;;;;;;;;;;;;16.81;48.10;101204.69;5057110;28;1914;-59
2024/03/21 01:01:14;;;;;;;;;;;;;;;16.35;47.75;101185.94;5043533;28;1138;-59
2024/03/21 01:03:39;;;;;;;;;;;;;;;16.78;48.26;101195.03;5066291;28;1147;-59
2024/03/21 01:06:05;;;;;;;;;;;;;;;16.80;48.10;101192.03;5076418;28;1021;-59
2024/03/21 01:08:30;;;;;;;;;;;;;;;16.40;47.87;101177.75;5076699;28;1141;-59
2024/03/21 01:10:56;;;;;;;;;;;;;;;16.03;47.46;101182.13;5076436;28;1094;-58
2024/03/21 01:13:22;;;;;;;;;;;;;;;16.54;47.86;101178.94;5076253;28;1042;-58
2024/03/21 01:15:47;;;;;;;;;;;;;;;16.77;48.12;101179.66;5074452;28;1302;-59
2024/03/21 01:18:13;;;;;;;;;;;;;;;16.13;48.03;101169.56;5068210;28;2049;-61
2024/03/21 01:20:41;;;;;;;;;;;;;;;17.59;47.03;101171.00;5063423;28;1123;-60
2024/03/21 01:23:07;;;;;;;;;;;;;;;16.60;48.08;101177.06;5076428;28;1086;-61
2024/03/21 01:25:33;;;;;;;;;;;;;;;17.56;47.31;101177.03;5076169;28;1047;-62
2024/03/21 01:28:02;;;;;;;;;;;;;;;17.54;47.22;101160.78;5076544;28;1117;-61
2024/03/21 01:30:30;;;;;;;;;;;;;;;16.54;48.40;101173.47;5073867;28;908;-61
2024/03/21 01:32:56;;;;;;;;;;;;;;;16.49;47.26;101169.84;5075877;28;1062;-61
2024/03/21 01:35:21;;;;;;;;;;;;;;;16.14;46.98;101166.56;5075952;28;1039;-60
2024/03/21 01:37:47;;;;;;;;;;;;;;;17.37;47.47;101161.00;5067230;28;1942;-61
2024/03/21 01:40:12;;;;;;;;;;;;;;;16.64;48.33;101148.00;5058173;28;1129;-60
2024/03/21 01:42:39;;;;;;;;;;;;;;;16.30;47.66;101142.81;5057027;28;861;-61
2024/03/21 01:45:05;;;;;;;;;;;;;;;16.17;47.01;101129.53;5055960;28;1087;-60
2024/03/21 01:47:31;;;;;;;;;;;;;;;15.87;46.47;101141.91;5065118;28;1066;-61
2024/03/21 01:49:57;;;;;;;;;;;;;;;17.15;47.32;101132.91;5060420;28;1074;-61
2024/03/21 01:52:22;;;;;;;;;;;;;;;16.55;48.69;101139.44;5038486;28;1043;-61
2024/03/21 01:54:48;;;;;;;;;;;;;;;16.24;47.87;101130.97;5057120;28;979;-61
2024/03/21 01:57:13;;;;;;;;;;;;;;;16.59;48.30;101126.00;5053655;28;2042;-60
2024/03/21 01:59:39;;;;;;;;;;;;;;;17.20;47.57;101127.44;5062621;28;1051;-61
2024/03/21 02:02:05;;;;;;;;;;;;;;;16.37;48.58;101126.16;5058517;28;1202;-61
2024/03/21 02:04:31;;;;;;;;;;;;;;;16.14;47.74;101116.34;5053958;28;1127;-60
2024/03/21 02:06:57;;;;;;;;;;;;;;;17.84;46.58;101134.47;5065573;28;1005;-61
2024/03/21 02:09:25;;;;;;;;;;;;;;;16.74;48.12;101119.78;5057662;28;1082;-59
2024/03/21 02:11:51;;;;;;;;;;;;;;;16.38;47.65;101119.53;5055139;28;1103;-60
2024/03/21 02:14:18;;;;;;;;;;;;;;;17.18;47.57;101110.38;5059343;28;1161;-60
2024/03/21 02:16:43;;;;;;;;;;;;;;;17.63;47.01;101111.59;5047778;28;1151;-61
2024/03/21 02:19:09;;;;;;;;;;;;;;;16.68;48.04;101110.69;5025306;28;1969;-59
2024/03/21 02:24:18;;;;;;;;;;;;;;;16.24;46.57;101106.28;5065492;28;1218;-60
2024/03/21 02:26:44;;;;;;;;;;;;;;;17.57;47.24;101108.03;5079690;28;1051;-60
2024/03/21 02:29:09;;;;;;;;;;;;;;;16.95;48.23;101103.44;5076954;28;1071;-60
2024/03/21 02:31:35;;;;;;;;;;;;;;;16.43;47.97;101109.41;5067317;28;1079;-59
2024/03/21 02:34:00;;;;;;;;;;;;;;;16.21;47.28;101103.22;5065020;28;1146;-58
2024/03/21 02:36:26;;;;;;;;;;;;;;;16.10;46.53;101107.00;5067575;28;1143;-59
2024/03/21 02:38:51;;;;;;;;;;;;;;;17.33;47.62;101107.69;5050993;28;1902;-60
2024/03/21 02:41:17;;;;;;;;;;;;;;;17.07;48.09;101107.59;5071622;28;1075;-60
2024/03/21 02:43:42;;;;;;;;;;;;;;;16.45;48.28;101097.34;5065518;28;1201;-59
2024/03/21 02:46:08;;;;;;;;;;;;;;;16.21;47.29;101098.56;5068461;28;1086;-61
2024/03/21 02:48:36;;;;;;;;;;;;;;;16.09;46.49;101092.47;5059023;28;1096;-61
2024/03/21 02:51:02;;;;;;;;;;;;;;;17.14;47.69;101098.25;5070343;28;1035;-60
2024/03/21 02:53:28;;;;;;;;;;;;;;;17.71;46.97;101108.31;5065587;28;1121;-60
2024/03/21 02:55:53;;;;;;;;;;;;;;;16.64;48.36;101111.47;5068541;28;1194;-61
2024/03/21 02:58:19;;;;;;;;;;;;;;;16.43;47.33;101098.44;5063660;28;1999;-59
2024/03/21 03:00:44;;;;;;;;;;;;;;;16.27;46.97;101084.88;5068272;28;1077;-60
2024/03/21 03:03:10;;;;;;;;;;;;;;;16.59;48.10;101066.44;5059009;28;1103;-59
2024/03/21 03:05:42;;;;;;;;;;;;;;;16.20;47.45;101080.47;5064970;28;1395;-60
2024/03/21 03:08:07;;;;;;;;;;;;;;;15.99;46.79;101079.50;5045563;28;1024;-60
2024/03/21 03:10:33;;;;;;;;;;;;;;;15.95;46.10;101078.34;5071016;28;1230;-59
2024/03/21 03:12:58;;;;;;;;;;;;;;;16.97;47.33;101099.31;5065602;28;1078;-60
2024/03/21 03:15:24;;;;;;;;;;;;;;;16.58;48.17;101111.44;5066958;28;1324;-61
2024/03/21 03:17:49;;;;;;;;;;;;;;;16.21;47.79;101119.69;5070204;28;1967;-60
2024/03/21 03:20:15;;;;;;;;;;;;;;;16.48;47.79;101116.88;5059205;28;1047;-60
2024/03/21 03:22:40;;;;;;;;;;;;;;;17.93;46.38;101123.75;5076960;28;1128;-61
2024/03/21 03:25:06;;;;;;;;;;;;;;;16.75;48.18;101103.03;5067482;28;1059;-61
2024/03/21 03:27:32;;;;;;;;;;;;;;;16.27;47.93;101107.69;5076861;28;1168;-61
2024/03/21 03:29:57;;;;;;;;;;;;;;;16.07;47.47;101111.06;5071734;28;1103;-60
2024/03/21 03:32:23;;;;;;;;;;;;;;;16.41;47.96;101105.28;5078063;28;1087;-61
2024/03/21 03:37:32;;;;;;;;;;;;;;;16.31;48.15;101108.78;5078044;28;1971;-61
2024/03/21 03:39:58;;;;;;;;;;;;;;;16.10;47.33;101109.72;5078232;28;1146;-59
2024/03/21 03:42:23;;;;;;;;;;;;;;;15.95;46.71;101110.41;5071070;28;912;-59
2024/03/21 03:44:49;;;;;;;;;;;;;;;15.80;46.27;101098.25;5058345;28;1103;-59
2024/03/21 03:47:14;;;;;;;;;;;;;;;17.20;47.54;101110.94;5058070;28;1440;-61
2024/03/21 03:49:40;;;;;;;;;;;;;;;17.08;47.84;101106.50;5071489;28;1101;-61
2024/03/21 03:52:05;;;;;;;;;;;;;;;16.23;48.27;101103.81;5051916;28;977;-60
2024/03/21 03:54:31;;;;;;;;;;;;;;;17.05;48.02;101115.25;5073733;28;1070;-60
2024/03/21 03:56:56;;;;;;;;;;;;;;;16.62;48.50;101122.75;5057952;28;1493;-60
2024/03/21 03:59:22;;;;;;;;;;;;;;;16.17;48.21;101118.56;5058370;28;1910;-60
2024/03/21 04:01:47;;;;;;;;;;;;;;;16.07;47.09;101113.81;5057692;28;1198;-61
2024/03/21 04:04:13;;;;;;;;;;;;;;;16.73;47.98;101118.09;5071190;28;1134;-60
2024/03/21 04:06:40;;;;;;;;;;;;;;;17.98;46.17;101140.28;5043910;28;1433;-61
2024/03/21 04:09:05;;;;;;;;;;;;;;;16.53;48.38;101143.53;5064071;28;1068;-60
2024/03/21 04:11:32;;;;;;;;;;;;;;;16.25;47.81;101154.56;5051088;28;1191;-60
2024/03/21 04:13:58;;;;;;;;;;;;;;;16.05;47.03;101157.97;5077877;28;1074;-60
2024/03/21 04:16:23;;;;;;;;;;;;;;;16.67;47.71;101161.19;5071110;28;1138;-60
2024/03/21 04:18:49;;;;;;;;;;;;;;;16.99;47.89;101163.06;5060193;28;1901;-67
2024/03/21 04:21:14;;;;;;;;;;;;;;;16.38;48.25;101153.31;5050735;28;1075;-62
2024/03/21 04:23:40;;;;;;;;;;;;;;;17.97;46.52;101160.63;5062907;28;1115;-64
2024/03/21 04:26:06;;;;;;;;;;;;;;;16.89;48.06;101163.00;5053194;28;1143;-65
2024/03/21 04:28:31;;;;;;;;;;;;;;;16.36;48.10;101160.97;5061665;28;1111;-63
2024/03/21 04:30:57;;;;;;;;;;;;;;;17.57;47.31;101156.69;5063426;28;1162;-58
2024/03/21 04:33:22;;;;;;;;;;;;;;;17.00;48.18;101163.88;5056619;28;1032;-56
2024/03/21 04:35:49;;;;;;;;;;;;;;;16.64;48.55;101167.22;5057599;28;1250;-58
2024/03/21 04:38:15;;;;;;;;;;;;;;;18.04;46.14;101168.63;5070540;28;1913;-57
2024/03/21 04:40:40;;;;;;;;;;;;;;;16.85;48.15;101176.41;5057102;28;1127;-61
2024/03/21 04:43:06;;;;;;;;;;;;;;;16.46;47.88;101165.72;5039072;28;1103;-65
2024/03/21 04:45:31;;;;;;;;;;;;;;;16.29;47.18;101168.59;5052492;28;1017;-59
2024/03/21 04:47:57;;;;;;;;;;;;;;;16.91;47.76;101160.81;5057371;28;1139;-60
2024/03/21 04:50:22;;;;;;;;;;;;;;;17.38;47.51;101159.13;5072573;28;1229;-61
2024/03/21 04:52:48;;;;;;;;;;;;;;;16.60;48.35;101150.44;5048264;28;1055;-63
2024/03/21 04:55:13;;;;;;;;;;;;;;;16.30;47.59;101145.56;5059919;28;838;-62
2024/03/21 04:57:39;;;;;;;;;;;;;;;17.33;47.47;101146.16;5068500;28;1968;-63
2024/03/21 05:00:05;;;;;;;;;;;;;;;16.91;47.98;101133.34;5037427;28;1207;-58
2024/03/21 05:02:31;;;;;;;;;;;;;;;16.39;47.89;101145.91;5040356;28;1244;-65
2024/03/21 05:04:56;;;;;;;;;;;;;;;17.43;47.28;101168.19;5064084;28;1119;-63
2024/03/21 05:07:22;;;;;;;;;;;;;;;16.66;48.27;101166.94;5065101;28;1079;-61
2024/03/21 05:09:48;;;;;;;;;;;;;;;16.98;47.83;101172.38;5046155;28;1179;-61
2024/03/21 05:12:13;;;;;;;;;;;;;;;17.13;47.02;101166.16;5076089;28;1055;-63
2024/03/21 05:14:39;;;;;;;;;;;;;;;16.67;48.17;101157.63;5063720;28;1619;-64
2024/03/21 05:17:04;;;;;;;;;;;;;;;16.37;48.70;101157.16;5062413;28;1914;-66
2024/03/21 05:19:30;;;;;;;;;;;;;;;16.11;49.28;101138.81;5069452;28;1159;-66
2024/03/21 05:21:57;;;;;;;;;;;;;;;15.96;49.48;101143.06;5046151;28;1153;-61
2024/03/21 05:24:22;;;;;;;;;;;;;;;15.80;49.73;101135.81;5061139;28;1039;-63
2024/03/21 05:26:48;;;;;;;;;;;;;;;15.68;50.03;101127.69;5064154;28;1190;-68
2024/03/21 05:29:13;;;;;;;;;;;;;;;15.51;50.35;101133.28;5060704;28;1135;-67
2024/03/21 05:31:40;;;;;;;;;;;;;;;15.44;50.61;101127.19;5063309;28;905;-64
2024/03/21 05:34:05;;;;;;;;;;;;;;;15.28;50.74;101128.91;5074695;28;1124;-61
2024/03/21 05:36:31;;;;;;;;;;;;;;;15.17;51.02;101144.41;5052558;28;1142;-63
2024/03/21 05:38:57;;;;;;;;;;;;;;;16.55;47.90;101150.41;5073127;28;2227;-64
2024/03/21 05:41:22;;;;;;;;;;;;;;;17.56;45.33;101152.28;5064061;28;1090;-65
2024/03/21 05:43:48;;;;;;;;;;;;;;;16.69;47.10;101150.78;5056155;28;1198;-66
2024/03/21 05:46:13;;;;;;;;;;;;;;;16.08;48.64;101146.47;5055750;28;1158;-68
2024/03/21 05:48:39;;;;;;;;;;;;;;;15.80;49.50;101141.28;5069379;28;1090;-68
2024/03/21 05:51:04;;;;;;;;;;;;;;;15.54;49.90;101140.97;5055940;28;1107;-67
2024/03/21 05:53:30;;;;;;;;;;;;;;;15.35;50.35;101157.78;5073415;28;1529;-68
2024/03/21 05:55:56;;;;;;;;;;;;;;;16.39;48.08;101165.94;5074539;28;1418;-65
2024/03/21 05:58:22;;;;;;;;;;;;;;;17.54;45.14;101174.53;5043545;28;1910;-66
2024/03/21 06:00:54;;;;;;;;;;;;;;;16.82;46.53;101178.88;5055862;28;1074;-66
2024/03/21 06:03:20;;;;;;;;;;;;;;;16.22;48.21;101185.28;5061677;28;1057;-65
2024/03/21 06:05:46;;;;;;;;;;;;;;;15.91;49.12;101208.88;5062676;28;1190;-62
2024/03/21 06:08:12;;;;;;;;;;;;;;;15.67;49.80;101208.28;5063592;28;1121;-61
2024/03/21 06:10:37;;;;;;;;;;;;;;;15.43;50.00;101207.72;5069415;28;1205;-61
2024/03/21 06:13:03;;;;;;;;;;;;;;;16.07;48.85;101207.94;5061703;28;1066;-61
2024/03/21 06:15:30;;;;;;;;;;;;;;;17.38;45.64;101195.66;5075343;28;1070;-61
2024/03/21 06:17:55;;;;;;;;;;;;;;;17.22;45.68;101199.44;5074838;28;1973;-61
2024/03/21 06:20:21;;;;;;;;;;;;;;;16.37;47.70;101190.09;5072732;28;1034;-61
2024/03/21 06:22:47;;;;;;;;;;;;;;;15.91;48.89;101197.91;5061959;28;1206;-61
2024/03/21 06:25:13;;;;;;;;;;;;;;;15.64;49.36;101182.22;5075885;28;1082;-61
2024/03/21 06:27:38;;;;;;;;;;;;;;;15.47;49.84;101192.44;5055786;28;1202;-61
2024/03/21 06:30:05;;;;;;;;;;;;;;;15.56;49.81;101179.94;5068355;28;1070;-61
2024/03/21 06:32:30;;;;;;;;;;;;;;;17.15;45.95;101171.38;5064817;28;1031;-61
2024/03/21 06:34:56;;;;;;;;;;;;;;;17.89;44.17;101174.91;5062772;28;1024;-61
2024/03/21 06:37:21;;;;;;;;;;;;;;;16.76;46.80;101178.84;5061278;28;1913;-62
2024/03/21 06:39:47;;;;;;;;;;;;;;;16.23;48.05;101186.13;5063181;28;1023;-59
2024/03/21 06:42:12;;;;;;;;;;;;;;;15.90;48.88;101185.25;5036867;28;1137;-58
2024/03/21 06:44:38;;;;;;;;;;;;;;;15.65;49.39;101189.34;5038353;28;888;-58
2024/03/21 06:47:05;;;;;;;;;;;;;;;15.69;49.35;101193.22;5067989;28;1187;-60
2024/03/21 06:49:30;;;;;;;;;;;;;;;17.26;45.62;101195.91;5068342;28;1195;-59
2024/03/21 06:51:56;;;;;;;;;;;;;;;18.06;43.71;101205.78;5075344;28;1146;-59
2024/03/21 06:54:21;;;;;;;;;;;;;;;16.97;46.29;101202.88;5062025;28;1014;-58
2024/03/21 06:56:47;;;;;;;;;;;;;;;16.41;47.73;101196.69;5064464;28;1143;-63
2024/03/21 06:59:13;;;;;;;;;;;;;;;16.07;48.39;101201.59;5074655;28;1902;-62
2024/03/21 07:01:38;;;;;;;;;;;;;;;15.79;49.03;101206.25;5055903;28;1222;-61
2024/03/21 07:04:07;;;;;;;;;;;;;;;15.64;49.21;101201.41;5069611;28;1148;-62
2024/03/21 07:06:33;;;;;;;;;;;;;;;15.41;49.82;101202.50;5052435;28;1032;-62
2024/03/21 07:08:59;;;;;;;;;;;;;;;16.36;47.87;101193.09;5074791;28;884;-64
2024/03/21 07:11:24;;;;;;;;;;;;;;;17.55;44.85;101187.19;5079220;28;1174;-61
2024/03/21 07:13:50;;;;;;;;;;;;;;;17.08;45.67;101182.59;5064944;28;1131;-64
2024/03/21 07:16:16;;;;;;;;;;;;;;;16.35;47.77;101175.78;5052606;28;1073;-64
2024/03/21 07:18:42;;;;;;;;;;;;;;;15.90;48.83;101175.09;5051652;28;1907;-64
2024/03/21 07:21:07;;;;;;;;;;;;;;;15.74;48.93;101184.25;5067361;28;886;-65
2024/03/21 07:23:33;;;;;;;;;;;;;;;15.57;49.44;101176.09;5078231;28;1067;-62
2024/03/21 07:25:59;;;;;;;;;;;;;;;15.81;49.21;101178.56;5078364;28;1240;-64
2024/03/21 07:28:24;;;;;;;;;;;;;;;17.30;45.68;101176.94;5078356;28;1038;-65
2024/03/21 07:30:53;;;;;;;;;;;;;;;17.22;45.40;101189.28;5071476;28;953;-59
2024/03/21 07:33:19;;;;;;;;;;;;;;;16.21;47.87;101191.84;5076008;28;881;-61
2024/03/21 07:35:52;;;;;;;;;;;;;;;15.89;48.59;101191.81;5051932;28;1044;-61
2024/03/21 07:38:17;;;;;;;;;;;;;;;15.63;49.28;101201.69;5078050;28;1905;-62
2024/03/21 07:40:43;;;;;;;;;;;;;;;15.49;49.50;101196.56;5058173;28;1170;-62
2024/03/21 07:43:08;;;;;;;;;;;;;;;15.39;50.03;101212.91;5058024;28;1205;-60
2024/03/21 07:45:34;;;;;;;;;;;;;;;16.99;46.18;101209.75;5077546;28;1139;-62
2024/03/21 07:47:59;;;;;;;;;;;;;;;17.64;44.36;101201.25;5065077;28;1154;-62
2024/03/21 07:50:25;;;;;;;;;;;;;;;16.56;46.96;101198.75;5056966;28;1075;-62
2024/03/21 07:52:50;;;;;;;;;;;;;;;16.07;48.01;101194.22;5064051;28;979;-63
2024/03/21 07:55:16;;;;;;;;;;;;;;;15.78;48.69;101198.25;5052738;28;1082;-63
2024/03/21 07:57:41;;;;;;;;;;;;;;;15.59;49.31;101200.53;5041466;28;1922;-61
2024/03/21 08:00:08;;;;;;;;;;;;;;;15.38;49.78;101195.63;5069216;28;1123;-59
2024/03/21 08:02:33;;;;;;;;;;;;;;;15.86;49.03;101200.56;5064396;28;1137;-59
2024/03/21 08:04:59;;;;;;;;;;;;;;;17.24;45.49;101200.81;5077785;28;1007;-61
2024/03/21 08:07:24;;;;;;;;;;;;;;;17.49;44.49;101203.94;5064143;28;1067;-60
2024/03/21 08:09:50;;;;;;;;;;;;;;;16.39;47.16;101209.84;5065845;28;1075;-60
2024/03/21 08:12:15;;;;;;;;;;;;;;;16.03;48.38;101206.81;5050733;28;1194;-60
2024/03/21 08:14:41;;;;;;;;;;;;;;;15.82;48.92;101218.63;5038923;28;1215;-60
2024/03/21 08:17:06;;;;;;;;;;;;;;;15.56;49.35;101221.06;5064214;28;1099;-60
2024/03/21 08:19:32;;;;;;;;;;;;;;;15.71;49.37;101220.38;5076325;28;1918;-60
2024/03/21 08:21:58;;;;;;;;;;;;;;;17.29;45.48;101216.50;5037502;28;1368;-61
2024/03/21 08:24:26;;;;;;;;;;;;;;;17.48;44.82;101221.56;5051848;28;1282;-60
2024/03/21 08:26:51;;;;;;;;;;;;;;;16.47;47.31;101226.94;5048185;28;1352;-60
2024/03/21 08:29:17;;;;;;;;;;;;;;;16.08;48.38;101226.03;5065140;28;1180;-60
2024/03/21 08:31:42;;;;;;;;;;;;;;;15.78;49.16;101222.94;5059224;28;1060;-60
2024/03/21 08:34:08;;;;;;;;;;;;;;;15.59;49.46;101216.97;5062463;28;1135;-59
2024/03/21 08:36:34;;;;;;;;;;;;;;;15.53;49.64;101216.09;5048128;28;1052;-60
2024/03/21 08:39:00;;;;;;;;;;;;;;;17.13;45.94;101210.13;5057172;28;2025;-67
2024/03/21 08:41:26;;;;;;;;;;;;;;;17.74;44.27;101205.94;5077074;28;1106;-64
2024/03/21 08:43:52;;;;;;;;;;;;;;;16.53;47.12;101204.75;5059232;28;1050;-60
2024/03/21 08:46:17;;;;;;;;;;;;;;;16.18;47.93;101211.59;5063811;28;1074;-63
2024/03/21 08:48:43;;;;;;;;;;;;;;;15.89;48.83;101216.50;5055210;28;1077;-66
2024/03/21 08:51:08;;;;;;;;;;;;;;;15.59;49.78;101211.50;5069868;28;1099;-68
2024/03/21 08:53:37;;;;;;;;;;;;;;;15.40;49.88;101209.91;5050572;28;1177;-63
2024/03/21 08:56:03;;;;;;;;;;;;;;;15.52;49.94;101212.50;5033609;28;1269;-67
2024/03/21 08:58:29;;;;;;;;;;;;;;;17.07;46.03;101214.75;5036081;28;1996;-60
2024/03/21 09:00:54;;;;;;;;;;;;;;;17.86;44.27;101208.47;5055201;28;1452;-59
2024/03/21 09:03:19;;;;;;;;;;;;;;;16.72;46.67;101202.41;5042691;28;1266;-59
2024/03/21 09:05:45;;;;;;;;;;;;;;;16.20;47.96;101186.63;5039908;28;1081;-58
2024/03/21 09:08:11;;;;;;;;;;;;;;;15.99;48.43;101191.94;5053456;28;1063;-58
2024/03/21 09:10:36;;;;;;;;;;;;;;;15.71;49.08;101185.59;5056385;28;1099;-61
2024/03/21 09:13:02;;;;;;;;;;;;;;;15.48;49.74;101178.47;5056512;28;1094;-61
2024/03/21 09:15:28;;;;;;;;;;;;;;;15.33;50.37;101181.03;5038146;28;1182;-62
2024/03/21 09:17:53;;;;;;;;;;;;;;;16.56;47.38;101181.44;5047702;28;1910;-59
2024/03/21 09:20:19;;;;;;;;;;;;;;;17.62;44.92;101189.69;5042100;28;1219;-59
2024/03/21 09:22:45;;;;;;;;;;;;;;;16.73;46.58;101197.75;5068192;28;1066;-59
2024/03/21 09:25:10;;;;;;;;;;;;;;;16.07;48.49;101202.44;5070686;28;1106;-59
2024/03/21 09:27:36;;;;;;;;;;;;;;;15.81;48.90;101192.28;5056070;28;1126;-59
2024/03/21 09:30:01;;;;;;;;;;;;;;;15.60;49.73;101192.06;5069536;28;1210;-59
2024/03/21 09:32:27;;;;;;;;;;;;;;;15.47;49.97;101197.91;5064334;28;1352;-59
2024/03/21 09:34:52;;;;;;;;;;;;;;;15.28;50.35;101197.41;5060799;28;1056;-57
2024/03/21 09:37:18;;;;;;;;;;;;;;;16.80;46.77;101198.34;5052895;28;1918;-57
2024/03/21 09:39:44;;;;;;;;;;;;;;;17.69;44.63;101195.75;5038114;28;1208;-58
2024/03/21 09:42:13;;;;;;;;;;;;;;;16.97;46.17;101195.47;5068956;28;969;-58
2024/03/21 09:44:39;;;;;;;;;;;;;;;16.24;48.02;101185.88;5053269;28;1015;-58
2024/03/21 09:47:05;;;;;;;;;;;;;;;15.93;48.81;101183.91;5070831;28;1079;-58
2024/03/21 09:49:31;;;;;;;;;;;;;;;15.70;49.27;101177.63;5049342;28;1210;-58
2024/03/21 09:51:56;;;;;;;;;;;;;;;15.47;50.08;101171.31;5055934;28;1007;-58
2024/03/21 09:54:22;;;;;;;;;;;;;;;15.33;50.14;101175.56;5046572;28;1068;-58
2024/03/21 09:56:47;;;;;;;;;;;;;;;16.48;47.52;101174.53;5065028;28;1074;-58
2024/03/21 09:59:13;;;;;;;;;;;;;;;17.59;44.86;101176.50;5075400;28;1987;-58
2024/03/21 10:01:39;;;;;;;;;;;;;;;16.86;46.52;101185.50;5075479;28;1158;-58
2024/03/21 10:04:04;;;;;;;;;;;;;;;16.13;48.27;101183.28;5075672;28;1505;-58
2024/03/21 10:06:30;;;;;;;;;;;;;;;15.85;49.09;101188.78;5060716;28;1153;-57
2024/03/21 10:08:58;;;;;;;;;;;;;;;15.60;49.76;101175.59;5050380;28;1239;-59
2024/03/21 10:11:23;;;;;;;;;;;;;;;15.48;49.92;101177.66;5065140;28;1183;-58
2024/03/21 10:13:49;;;;;;;;;;;;;;;15.25;50.50;101176.84;5053798;28;1230;-59
2024/03/21 10:16:16;;;;;;;;;;;;;;;16.54;47.43;101164.41;5036104;28;1226;-58
2024/03/21 10:18:42;;;;;;;;;;;;;;;17.61;44.89;101175.13;5036839;28;1973;-59
2024/03/21 10:21:11;;;;;;;;;;;;;;;16.81;46.54;101166.22;5040996;28;1314;-60
2024/03/21 10:23:36;;;;;;;;;;;;;;;16.19;48.15;101149.31;5038496;28;1203;-58
2024/03/21 10:26:02;;;;;;;;;;;;;;;15.80;49.28;101152.25;5020246;28;1279;-60
2024/03/21 10:28:27;;;;;;;;;;;;;;;15.66;49.46;101162.78;5042027;28;1283;-58
2024/03/21 10:30:53;;;;;;;;;;;;;;;15.44;50.27;101160.06;5042262;28;1079;-59
2024/03/21 10:33:19;;;;;;;;;;;;;;;15.34;50.50;101156.09;5040228;28;1049;-58
2024/03/21 10:35:45;;;;;;;;;;;;;;;16.47;47.60;101148.16;5063109;28;1135;-58
2024/03/21 10:38:14;;;;;;;;;;;;;;;17.53;45.09;101142.66;5073992;28;1905;-58
2024/03/21 10:40:46;;;;;;;;;;;;;;;17.07;46.04;101148.00;5065129;28;1166;-58
2024/03/21 10:43:13;;;;;;;;;;;;;;;16.23;47.99;101142.22;5053852;28;1229;-59
2024/03/21 10:45:40;;;;;;;;;;;;;;;15.99;48.58;101145.31;5038862;28;1400;-58
2024/03/21 10:48:06;;;;;;;;;;;;;;;15.69;49.39;101154.03;5052033;28;1121;-57
2024/03/21 10:50:32;;;;;;;;;;;;;;;15.50;49.91;101148.06;5052120;28;1183;-57
2024/03/21 10:52:57;;;;;;;;;;;;;;;15.38;50.37;101156.44;5058656;28;1047;-59
2024/03/21 10:55:23;;;;;;;;;;;;;;;15.86;49.31;101157.50;5067781;28;1071;-58
2024/03/21 10:57:50;;;;;;;;;;;;;;;17.26;45.59;101165.66;5060740;28;1991;-58
2024/03/21 11:00:17;;;;;;;;;;;;;;;17.25;45.40;101165.91;5062267;28;1205;-58
2024/03/21 11:02:43;;;;;;;;;;;;;;;16.24;48.12;101163.06;5068791;28;1021;-58
2024/03/21 11:05:09;;;;;;;;;;;;;;;15.80;49.03;101172.28;5071891;28;1186;-58
2024/03/21 11:07:35;;;;;;;;;;;;;;;15.60;49.74;101172.88;5057214;28;1064;-57
2024/03/21 11:10:01;;;;;;;;;;;;;;;15.40;50.05;101173.44;5048078;28;1235;-58
2024/03/21 11:12:29;;;;;;;;;;;;;;;15.88;49.11;101176.47;5057051;28;1119;-58
2024/03/21 11:14:54;;;;;;;;;;;;;;;17.31;45.57;101181.34;5058366;28;1080;-58
2024/03/21 11:17:20;;;;;;;;;;;;;;;17.54;44.94;101177.28;5054721;28;1970;-57
2024/03/21 11:19:45;;;;;;;;;;;;;;;16.47;47.43;101177.53;5071019;28;1063;-58
2024/03/21 11:22:12;;;;;;;;;;;;;;;16.02;48.75;101177.72;5068832;28;1059;-58
2024/03/21 11:24:37;;;;;;;;;;;;;;;15.78;49.22;101171.69;5070762;28;1019;-58
2024/03/21 11:27:05;;;;;;;;;;;;;;;15.50;50.10;101164.50;5062197;28;1209;-63
2024/03/21 11:29:30;;;;;;;;;;;;;;;15.30;50.42;101168.66;5052048;28;1407;-60
2024/03/21 11:31:56;;;;;;;;;;;;;;;15.23;50.78;101171.63;5069928;28;1163;-60
2024/03/21 11:34:22;;;;;;;;;;;;;;;16.82;46.77;101170.63;5052858;28;1055;-60
2024/03/21 11:36:48;;;;;;;;;;;;;;;17.71;44.66;101168.00;5038153;28;1321;-61
2024/03/21 11:39:14;;;;;;;;;;;;;;;16.80;46.83;101159.06;5061193;28;1918;-57
2024/03/21 11:41:39;;;;;;;;;;;;;;;16.16;48.40;101152.56;5064907;28;1426;-57
2024/03/21 11:44:05;;;;;;;;;;;;;;;15.78;49.46;101154.38;5062797;28;1226;-57
2024/03/21 11:46:31;;;;;;;;;;;;;;;15.53;50.01;101153.06;5064441;28;1100;-59
2024/03/21 11:49:00;;;;;;;;;;;;;;;15.36;50.40;101156.69;5062468;28;1410;-58
2024/03/21 11:51:26;;;;;;;;;;;;;;;15.44;50.34;101155.41;5038645;28;1445;-60
2024/03/21 11:53:52;;;;;;;;;;;;;;;17.04;46.25;101143.00;5038676;28;1256;-59
2024/03/21 11:56:17;;;;;;;;;;;;;;;17.68;44.56;101152.84;5040459;28;1290;-57
2024/03/21 11:58:42;;;;;;;;;;;;;;;16.55;47.21;101153.16;5041541;28;1977;-58
2024/03/21 12:01:08;;;;;;;;;;;;;;;16.03;48.45;101140.97;5041690;28;1263;-58
2024/03/21 12:03:33;;;;;;;;;;;;;;;15.66;49.62;101140.84;5039125;28;1219;-54
2024/03/21 12:05:59;;;;;;;;;;;;;;;15.49;49.95;101140.94;5040150;28;1279;-57
2024/03/21 12:08:24;;;;;;;;;;;;;;;15.36;50.19;101153.97;5043347;28;1403;-58
2024/03/21 12:10:51;;;;;;;;;;;;;;;16.60;47.23;101146.88;5041243;28;1333;-58
2024/03/21 12:13:17;;;;;;;;;;;;;;;17.61;44.85;101149.53;5038373;28;1230;-58
2024/03/21 12:15:42;;;;;;;;;;;;;;;16.62;47.03;101152.09;5042624;28;1207;-59
2024/03/21 12:18:08;;;;;;;;;;;;;;;16.02;48.78;101149.44;5038169;28;1989;-58
2024/03/21 12:20:33;;;;;;;;;;;;;;;15.73;49.52;101147.75;5040199;28;1368;-58
2024/03/21 12:22:59;;;;;;;;;;;;;;;15.49;49.90;101147.25;5060719;28;1187;-60
2024/03/21 12:25:25;;;;;;;;;;;;;;;15.35;50.25;101137.78;5043219;28;1411;-59
2024/03/21 12:27:51;;;;;;;;;;;;;;;16.10;48.80;101142.66;5039322;28;1400;-59
2024/03/21 12:30:16;;;;;;;;;;;;;;;17.36;45.40;101145.63;5037912;28;1407;-60
2024/03/21 12:32:42;;;;;;;;;;;;;;;17.16;45.59;101140.06;5059496;28;1072;-60
2024/03/21 12:35:07;;;;;;;;;;;;;;;16.31;47.80;101136.22;5051788;28;1118;-60
2024/03/21 12:37:34;;;;;;;;;;;;;;;16.02;48.78;101124.75;5060054;28;2054;-57
2024/03/21 12:40:00;;;;;;;;;;;;;;;15.64;49.81;101119.19;5062729;28;1135;-56
2024/03/21 12:42:25;;;;;;;;;;;;;;;15.51;49.98;101114.91;5052405;28;1158;-60
2024/03/21 12:44:51;;;;;;;;;;;;;;;15.37;50.56;101122.72;5049491;28;1371;-57